sensor_id;sensor_type;location;lat;lon;timestamp;P1;durP1;ratioP1;P2;durP2;ratioP2
55655;SDS011;41530;52.382;5.270;2023-01-25T00:00:01;5.03;;;4.07;;
55655;SDS011;41530;52.382;5.270;2023-01-25T00:02:29;4.47;;;4.05;;
55655;SDS011;41530;52.382;5.270;2023-01-25T00:04:56;5.82;;;4.30;;
55655;SDS011;41530;52.382;5.270;2023-01-25T00:07:23;6.13;;;4.50;;
55655;SDS011;41530;52.382;5.270;2023-01-25T00:09:50;4.65;;;4.10;;
55655;SDS011;41530;52.382;5.270;2023-01-25T00:12:17;7.05;;;3.83;;
55655;SDS011;41530;52.382;5.270;2023-01-25T00:14:44;4.70;;;4.25;;
55655;SDS011;41530;52.382;5.270;2023-01-25T00:17:11;6.28;;;4.75;;
55655;SDS011;41530;52.382;5.270;2023-01-25T00:19:38;5.35;;;4.38;;
55655;SDS011;41530;52.382;5.270;2023-01-25T00:22:04;4.90;;;4.40;;
55655;SDS011;41530;52.382;5.270;2023-01-25T00:24:31;4.75;;;4.25;;
55655;SDS011;41530;52.382;5.270;2023-01-25T00:26:58;4.57;;;3.92;;
55655;SDS011;41530;52.382;5.270;2023-01-25T00:29:25;4.35;;;3.92;;
55655;SDS011;41530;52.382;5.270;2023-01-25T00:39:28;4.90;;;4.40;;
55655;SDS011;41530;52.382;5.270;2023-01-25T00:41:54;4.68;;;4.13;;
55655;SDS011;41530;52.382;5.270;2023-01-25T00:44:22;5.35;;;4.10;;
55655;SDS011;41530;52.382;5.270;2023-01-25T00:46:48;5.18;;;4.18;;
55655;SDS011;41530;52.382;5.270;2023-01-25T00:49:25;4.47;;;4.00;;
55655;SDS011;41530;52.382;5.270;2023-01-25T00:51:53;5.13;;;4.35;;
55655;SDS011;41530;52.382;5.270;2023-01-25T00:54:20;4.85;;;4.30;;
55655;SDS011;41530;52.382;5.270;2023-01-25T00:56:48;4.70;;;4.30;;
55655;SDS011;41530;52.382;5.270;2023-01-25T00:59:18;4.57;;;4.13;;
55655;SDS011;41530;52.382;5.270;2023-01-25T01:01:45;4.32;;;3.92;;
55655;SDS011;41530;52.382;5.270;2023-01-25T01:04:12;4.55;;;3.92;;
55655;SDS011;41530;52.382;5.270;2023-01-25T01:06:40;4.43;;;3.70;;
55655;SDS011;41530;52.382;5.270;2023-01-25T01:09:12;4.78;;;4.05;;
55655;SDS011;41530;52.382;5.270;2023-01-25T01:11:40;4.45;;;3.80;;
55655;SDS011;41530;52.382;5.270;2023-01-25T01:14:07;4.57;;;3.85;;
55655;SDS011;41530;52.382;5.270;2023-01-25T01:16:34;4.20;;;3.58;;
55655;SDS011;41530;52.382;5.270;2023-01-25T01:19:01;4.60;;;4.13;;
55655;SDS011;41530;52.382;5.270;2023-01-25T01:21:28;6.07;;;4.40;;
55655;SDS011;41530;52.382;5.270;2023-01-25T01:23:55;5.18;;;3.95;;
55655;SDS011;41530;52.382;5.270;2023-01-25T01:26:23;4.88;;;4.15;;
55655;SDS011;41530;52.382;5.270;2023-01-25T01:28:50;4.47;;;4.03;;
55655;SDS011;41530;52.382;5.270;2023-01-25T01:31:18;7.05;;;4.30;;
55655;SDS011;41530;52.382;5.270;2023-01-25T01:33:49;4.30;;;3.90;;
55655;SDS011;41530;52.382;5.270;2023-01-25T01:36:18;5.50;;;4.35;;
55655;SDS011;41530;52.382;5.270;2023-01-25T01:38:47;5.38;;;3.97;;
55655;SDS011;41530;52.382;5.270;2023-01-25T01:41:14;4.65;;;4.15;;
55655;SDS011;41530;52.382;5.270;2023-01-25T01:43:42;5.10;;;3.90;;
55655;SDS011;41530;52.382;5.270;2023-01-25T01:46:13;4.18;;;3.78;;
55655;SDS011;41530;52.382;5.270;2023-01-25T01:54:07;4.80;;;3.80;;
55655;SDS011;41530;52.382;5.270;2023-01-25T01:57:25;4.60;;;3.80;;
55655;SDS011;41530;52.382;5.270;2023-01-25T01:59:27;4.70;;;4.00;;
55655;SDS011;41530;52.382;5.270;2023-01-25T02:01:59;4.35;;;3.85;;
55655;SDS011;41530;52.382;5.270;2023-01-25T02:04:26;4.18;;;3.55;;
55655;SDS011;41530;52.382;5.270;2023-01-25T02:06:54;4.30;;;3.90;;
55655;SDS011;41530;52.382;5.270;2023-01-25T02:09:28;5.03;;;3.83;;
55655;SDS011;41530;52.382;5.270;2023-01-25T02:11:59;4.38;;;3.85;;
55655;SDS011;41530;52.382;5.270;2023-01-25T02:14:27;4.35;;;3.80;;
55655;SDS011;41530;52.382;5.270;2023-01-25T02:16:55;5.40;;;4.00;;
55655;SDS011;41530;52.382;5.270;2023-01-25T02:19:37;4.15;;;3.75;;
55655;SDS011;41530;52.382;5.270;2023-01-25T02:22:08;3.92;;;3.53;;
55655;SDS011;41530;52.382;5.270;2023-01-25T02:24:39;4.50;;;4.00;;
55655;SDS011;41530;52.382;5.270;2023-01-25T02:27:11;4.50;;;3.72;;
55655;SDS011;41530;52.382;5.270;2023-01-25T02:29:38;5.15;;;4.35;;
55655;SDS011;41530;52.382;5.270;2023-01-25T02:32:05;4.72;;;4.20;;
55655;SDS011;41530;52.382;5.270;2023-01-25T02:34:32;4.47;;;3.80;;
55655;SDS011;41530;52.382;5.270;2023-01-25T02:36:59;4.78;;;3.90;;
55655;SDS011;41530;52.382;5.270;2023-01-25T02:39:25;5.28;;;4.13;;
55655;SDS011;41530;52.382;5.270;2023-01-25T02:41:54;3.97;;;3.58;;
55655;SDS011;41530;52.382;5.270;2023-01-25T02:44:26;5.53;;;4.75;;
55655;SDS011;41530;52.382;5.270;2023-01-25T02:46:59;4.65;;;3.95;;
55655;SDS011;41530;52.382;5.270;2023-01-25T02:49:26;5.05;;;4.10;;
55655;SDS011;41530;52.382;5.270;2023-01-25T02:51:53;4.38;;;3.97;;
55655;SDS011;41530;52.382;5.270;2023-01-25T02:54:22;4.63;;;3.42;;
55655;SDS011;41530;52.382;5.270;2023-01-25T02:56:51;4.35;;;3.42;;
55655;SDS011;41530;52.382;5.270;2023-01-25T02:59:18;4.05;;;3.65;;
55655;SDS011;41530;52.382;5.270;2023-01-25T03:01:46;4.97;;;4.03;;
55655;SDS011;41530;52.382;5.270;2023-01-25T03:04:13;4.47;;;3.75;;
55655;SDS011;41530;52.382;5.270;2023-01-25T03:06:40;6.28;;;4.20;;
55655;SDS011;41530;52.382;5.270;2023-01-25T03:09:08;5.47;;;4.20;;
55655;SDS011;41530;52.382;5.270;2023-01-25T03:11:36;4.50;;;3.80;;
55655;SDS011;41530;52.382;5.270;2023-01-25T03:14:03;4.93;;;3.88;;
55655;SDS011;41530;52.382;5.270;2023-01-25T03:16:31;4.38;;;3.88;;
55655;SDS011;41530;52.382;5.270;2023-01-25T03:18:58;3.88;;;3.45;;
55655;SDS011;41530;52.382;5.270;2023-01-25T03:21:25;4.78;;;4.00;;
55655;SDS011;41530;52.382;5.270;2023-01-25T03:23:59;5.07;;;3.85;;
55655;SDS011;41530;52.382;5.270;2023-01-25T03:26:27;4.80;;;3.83;;
55655;SDS011;41530;52.382;5.270;2023-01-25T03:28:54;5.63;;;3.47;;
55655;SDS011;41530;52.382;5.270;2023-01-25T03:31:21;5.00;;;3.78;;
55655;SDS011;41530;52.382;5.270;2023-01-25T03:33:49;5.43;;;4.13;;
55655;SDS011;41530;52.382;5.270;2023-01-25T03:36:16;4.60;;;3.90;;
55655;SDS011;41530;52.382;5.270;2023-01-25T03:38:43;4.95;;;3.58;;
55655;SDS011;41530;52.382;5.270;2023-01-25T03:41:11;5.28;;;3.70;;
55655;SDS011;41530;52.382;5.270;2023-01-25T03:43:39;4.28;;;3.83;;
55655;SDS011;41530;52.382;5.270;2023-01-25T03:46:05;4.57;;;3.75;;
55655;SDS011;41530;52.382;5.270;2023-01-25T03:48:32;4.68;;;3.60;;
55655;SDS011;41530;52.382;5.270;2023-01-25T03:50:59;4.30;;;3.90;;
55655;SDS011;41530;52.382;5.270;2023-01-25T03:53:27;4.35;;;3.63;;
55655;SDS011;41530;52.382;5.270;2023-01-25T03:55:56;4.38;;;3.50;;
55655;SDS011;41530;52.382;5.270;2023-01-25T03:58:37;4.05;;;3.33;;
55655;SDS011;41530;52.382;5.270;2023-01-25T04:01:06;4.05;;;3.35;;
55655;SDS011;41530;52.382;5.270;2023-01-25T04:03:33;5.00;;;3.70;;
55655;SDS011;41530;52.382;5.270;2023-01-25T04:06:00;4.43;;;3.20;;
55655;SDS011;41530;52.382;5.270;2023-01-25T04:08:27;4.30;;;3.47;;
55655;SDS011;41530;52.382;5.270;2023-01-25T04:10:55;3.88;;;3.47;;
55655;SDS011;41530;52.382;5.270;2023-01-25T04:13:25;4.18;;;3.78;;
55655;SDS011;41530;52.382;5.270;2023-01-25T04:15:52;4.10;;;3.60;;
55655;SDS011;41530;52.382;5.270;2023-01-25T04:18:19;5.45;;;4.47;;
55655;SDS011;41530;52.382;5.270;2023-01-25T04:20:51;4.68;;;4.20;;
55655;SDS011;41530;52.382;5.270;2023-01-25T04:23:19;4.75;;;4.10;;
55655;SDS011;41530;52.382;5.270;2023-01-25T04:25:53;4.85;;;4.00;;
55655;SDS011;41530;52.382;5.270;2023-01-25T04:28:20;5.78;;;4.35;;
55655;SDS011;41530;52.382;5.270;2023-01-25T04:30:47;7.70;;;4.30;;
55655;SDS011;41530;52.382;5.270;2023-01-25T04:33:15;5.63;;;4.22;;
55655;SDS011;41530;52.382;5.270;2023-01-25T04:35:43;5.40;;;4.20;;
55655;SDS011;41530;52.382;5.270;2023-01-25T04:38:10;7.03;;;4.43;;
55655;SDS011;41530;52.382;5.270;2023-01-25T04:40:37;5.45;;;4.22;;
55655;SDS011;41530;52.382;5.270;2023-01-25T04:43:04;5.90;;;4.72;;
55655;SDS011;41530;52.382;5.270;2023-01-25T04:45:31;5.60;;;4.70;;
55655;SDS011;41530;52.382;5.270;2023-01-25T04:48:00;5.65;;;4.47;;
55655;SDS011;41530;52.382;5.270;2023-01-25T04:50:29;4.68;;;3.80;;
55655;SDS011;41530;52.382;5.270;2023-01-25T04:52:57;5.68;;;4.45;;
55655;SDS011;41530;52.382;5.270;2023-01-25T04:55:24;5.30;;;4.10;;
55655;SDS011;41530;52.382;5.270;2023-01-25T04:57:51;6.03;;;4.57;;
55655;SDS011;41530;52.382;5.270;2023-01-25T05:00:19;5.75;;;4.78;;
55655;SDS011;41530;52.382;5.270;2023-01-25T05:02:46;5.97;;;5.05;;
55655;SDS011;41530;52.382;5.270;2023-01-25T05:05:13;6.22;;;4.85;;
55655;SDS011;41530;52.382;5.270;2023-01-25T05:07:40;6.10;;;4.78;;
55655;SDS011;41530;52.382;5.270;2023-01-25T05:10:07;4.43;;;4.00;;
55655;SDS011;41530;52.382;5.270;2023-01-25T05:12:35;4.57;;;3.72;;
55655;SDS011;41530;52.382;5.270;2023-01-25T05:15:03;5.40;;;4.32;;
55655;SDS011;41530;52.382;5.270;2023-01-25T05:17:30;4.78;;;4.03;;
55655;SDS011;41530;52.382;5.270;2023-01-25T05:19:57;5.30;;;4.22;;
55655;SDS011;41530;52.382;5.270;2023-01-25T05:22:24;4.65;;;4.15;;
55655;SDS011;41530;52.382;5.270;2023-01-25T05:24:50;4.40;;;3.97;;
55655;SDS011;41530;52.382;5.270;2023-01-25T05:27:18;6.30;;;4.53;;
55655;SDS011;41530;52.382;5.270;2023-01-25T05:29:46;5.05;;;4.30;;
55655;SDS011;41530;52.382;5.270;2023-01-25T05:32:14;6.50;;;4.18;;
55655;SDS011;41530;52.382;5.270;2023-01-25T05:34:42;4.82;;;4.18;;
55655;SDS011;41530;52.382;5.270;2023-01-25T05:37:11;5.10;;;3.95;;
55655;SDS011;41530;52.382;5.270;2023-01-25T05:39:40;4.50;;;3.85;;
55655;SDS011;41530;52.382;5.270;2023-01-25T05:42:11;5.45;;;4.22;;
55655;SDS011;41530;52.382;5.270;2023-01-25T05:44:42;5.25;;;4.45;;
55655;SDS011;41530;52.382;5.270;2023-01-25T05:47:12;4.85;;;3.80;;
55655;SDS011;41530;52.382;5.270;2023-01-25T05:49:40;6.63;;;4.20;;
55655;SDS011;41530;52.382;5.270;2023-01-25T05:52:12;5.85;;;4.38;;
55655;SDS011;41530;52.382;5.270;2023-01-25T05:54:39;5.78;;;4.63;;
55655;SDS011;41530;52.382;5.270;2023-01-25T05:57:06;8.90;;;4.85;;
55655;SDS011;41530;52.382;5.270;2023-01-25T05:59:33;6.00;;;4.95;;
55655;SDS011;41530;52.382;5.270;2023-01-25T06:02:00;6.45;;;5.35;;
55655;SDS011;41530;52.382;5.270;2023-01-25T06:04:26;6.30;;;4.63;;
55655;SDS011;41530;52.382;5.270;2023-01-25T06:06:53;6.50;;;4.82;;
55655;SDS011;41530;52.382;5.270;2023-01-25T06:09:20;5.78;;;4.80;;
55655;SDS011;41530;52.382;5.270;2023-01-25T06:11:48;6.10;;;4.88;;
55655;SDS011;41530;52.382;5.270;2023-01-25T06:14:15;5.82;;;4.30;;
55655;SDS011;41530;52.382;5.270;2023-01-25T06:16:42;6.30;;;4.00;;
55655;SDS011;41530;52.382;5.270;2023-01-25T06:19:11;4.10;;;3.63;;
55655;SDS011;41530;52.382;5.270;2023-01-25T06:21:39;4.10;;;3.65;;
55655;SDS011;41530;52.382;5.270;2023-01-25T06:24:06;4.85;;;3.95;;
55655;SDS011;41530;52.382;5.270;2023-01-25T06:26:33;4.43;;;3.60;;
55655;SDS011;41530;52.382;5.270;2023-01-25T06:29:00;4.88;;;3.80;;
55655;SDS011;41530;52.382;5.270;2023-01-25T06:31:27;5.72;;;4.40;;
55655;SDS011;41530;52.382;5.270;2023-01-25T06:33:54;4.38;;;3.97;;
55655;SDS011;41530;52.382;5.270;2023-01-25T06:36:20;6.15;;;3.60;;
55655;SDS011;41530;52.382;5.270;2023-01-25T06:38:48;5.15;;;4.13;;
55655;SDS011;41530;52.382;5.270;2023-01-25T06:41:16;6.05;;;4.22;;
55655;SDS011;41530;52.382;5.270;2023-01-25T06:43:45;5.90;;;4.50;;
55655;SDS011;41530;52.382;5.270;2023-01-25T06:46:13;4.93;;;3.97;;
55655;SDS011;41530;52.382;5.270;2023-01-25T06:48:39;5.72;;;4.20;;
55655;SDS011;41530;52.382;5.270;2023-01-25T06:51:09;4.53;;;3.88;;
55655;SDS011;41530;52.382;5.270;2023-01-25T06:53:38;5.78;;;4.18;;
55655;SDS011;41530;52.382;5.270;2023-01-25T06:58:44;5.47;;;4.25;;
55655;SDS011;41530;52.382;5.270;2023-01-25T07:01:12;6.82;;;4.80;;
55655;SDS011;41530;52.382;5.270;2023-01-25T07:03:49;4.70;;;3.97;;
55655;SDS011;41530;52.382;5.270;2023-01-25T07:06:17;5.32;;;4.50;;
55655;SDS011;41530;52.382;5.270;2023-01-25T07:08:44;5.05;;;4.00;;
55655;SDS011;41530;52.382;5.270;2023-01-25T07:11:12;4.68;;;4.10;;
55655;SDS011;41530;52.382;5.270;2023-01-25T07:13:42;6.18;;;4.35;;
55655;SDS011;41530;52.382;5.270;2023-01-25T07:16:12;11.13;;;4.80;;
55655;SDS011;41530;52.382;5.270;2023-01-25T07:18:44;5.88;;;4.10;;
55655;SDS011;41530;52.382;5.270;2023-01-25T07:21:12;6.88;;;4.22;;
55655;SDS011;41530;52.382;5.270;2023-01-25T07:23:41;5.43;;;3.85;;
55655;SDS011;41530;52.382;5.270;2023-01-25T07:28:43;5.25;;;3.78;;
55655;SDS011;41530;52.382;5.270;2023-01-25T07:31:10;4.38;;;3.67;;
55655;SDS011;41530;52.382;5.270;2023-01-25T07:33:37;4.35;;;3.70;;
55655;SDS011;41530;52.382;5.270;2023-01-25T07:36:04;6.30;;;3.85;;
55655;SDS011;41530;52.382;5.270;2023-01-25T07:38:33;5.53;;;3.70;;
55655;SDS011;41530;52.382;5.270;2023-01-25T07:41:00;4.65;;;3.67;;
55655;SDS011;41530;52.382;5.270;2023-01-25T07:43:27;4.22;;;3.42;;
55655;SDS011;41530;52.382;5.270;2023-01-25T07:46:06;4.85;;;3.63;;
55655;SDS011;41530;52.382;5.270;2023-01-25T07:48:36;4.35;;;3.25;;
55655;SDS011;41530;52.382;5.270;2023-01-25T07:51:04;4.65;;;3.58;;
55655;SDS011;41530;52.382;5.270;2023-01-25T07:53:39;3.83;;;3.17;;
55655;SDS011;41530;52.382;5.270;2023-01-25T07:56:08;9.32;;;6.63;;
55655;SDS011;41530;52.382;5.270;2023-01-25T07:58:36;8.60;;;6.43;;
55655;SDS011;41530;52.382;5.270;2023-01-25T08:01:07;18.58;;;7.45;;
55655;SDS011;41530;52.382;5.270;2023-01-25T08:03:45;9.10;;;6.53;;
55655;SDS011;41530;52.382;5.270;2023-01-25T08:06:12;6.82;;;5.70;;
55655;SDS011;41530;52.382;5.270;2023-01-25T08:08:44;9.70;;;6.78;;
55655;SDS011;41530;52.382;5.270;2023-01-25T08:11:17;11.32;;;6.68;;
55655;SDS011;41530;52.382;5.270;2023-01-25T08:13:46;9.15;;;6.63;;
55655;SDS011;41530;52.382;5.270;2023-01-25T08:16:15;9.05;;;6.82;;
55655;SDS011;41530;52.382;5.270;2023-01-25T08:18:47;10.07;;;7.25;;
55655;SDS011;41530;52.382;5.270;2023-01-25T08:21:18;11.80;;;6.88;;
55655;SDS011;41530;52.382;5.270;2023-01-25T08:23:44;9.75;;;7.57;;
55655;SDS011;41530;52.382;5.270;2023-01-25T08:26:12;9.95;;;7.22;;
55655;SDS011;41530;52.382;5.270;2023-01-25T08:28:40;13.70;;;8.10;;
55655;SDS011;41530;52.382;5.270;2023-01-25T08:31:08;12.57;;;8.80;;
55655;SDS011;41530;52.382;5.270;2023-01-25T08:33:36;10.50;;;7.90;;
55655;SDS011;41530;52.382;5.270;2023-01-25T08:36:04;10.10;;;7.60;;
55655;SDS011;41530;52.382;5.270;2023-01-25T08:38:33;11.35;;;8.07;;
55655;SDS011;41530;52.382;5.270;2023-01-25T08:41:03;12.65;;;8.95;;
55655;SDS011;41530;52.382;5.270;2023-01-25T08:43:38;12.27;;;8.77;;
55655;SDS011;41530;52.382;5.270;2023-01-25T08:46:05;14.10;;;9.57;;
55655;SDS011;41530;52.382;5.270;2023-01-25T08:48:32;12.27;;;9.23;;
55655;SDS011;41530;52.382;5.270;2023-01-25T08:50:59;12.85;;;8.85;;
55655;SDS011;41530;52.382;5.270;2023-01-25T08:53:29;12.57;;;9.20;;
55655;SDS011;41530;52.382;5.270;2023-01-25T08:56:04;13.13;;;9.60;;
55655;SDS011;41530;52.382;5.270;2023-01-25T08:58:32;13.65;;;9.63;;
55655;SDS011;41530;52.382;5.270;2023-01-25T09:01:00;15.95;;;10.60;;
55655;SDS011;41530;52.382;5.270;2023-01-25T09:03:33;14.55;;;10.15;;
55655;SDS011;41530;52.382;5.270;2023-01-25T09:06:02;14.95;;;9.98;;
55655;SDS011;41530;52.382;5.270;2023-01-25T09:08:29;16.60;;;10.25;;
55655;SDS011;41530;52.382;5.270;2023-01-25T09:11:01;13.73;;;9.95;;
55655;SDS011;41530;52.382;5.270;2023-01-25T09:13:28;14.20;;;9.35;;
55655;SDS011;41530;52.382;5.270;2023-01-25T09:16:03;15.55;;;10.15;;
55655;SDS011;41530;52.382;5.270;2023-01-25T09:18:33;14.05;;;8.88;;
55655;SDS011;41530;52.382;5.270;2023-01-25T09:21:08;11.25;;;8.13;;
55655;SDS011;41530;52.382;5.270;2023-01-25T09:26:16;9.65;;;7.03;;
55655;SDS011;41530;52.382;5.270;2023-01-25T09:28:49;10.88;;;6.60;;
55655;SDS011;41530;52.382;5.270;2023-01-25T09:31:18;10.30;;;7.28;;
55655;SDS011;41530;52.382;5.270;2023-01-25T09:33:51;9.15;;;6.28;;
55655;SDS011;41530;52.382;5.270;2023-01-25T09:36:18;8.27;;;6.15;;
55655;SDS011;41530;52.382;5.270;2023-01-25T09:38:46;9.07;;;6.35;;
55655;SDS011;41530;52.382;5.270;2023-01-25T09:47:07;8.43;;;5.72;;
55655;SDS011;41530;52.382;5.270;2023-01-25T09:53:04;8.27;;;5.47;;
55655;SDS011;41530;52.382;5.270;2023-01-25T09:55:41;6.70;;;5.15;;
55655;SDS011;41530;52.382;5.270;2023-01-25T09:58:17;6.45;;;5.00;;
55655;SDS011;41530;52.382;5.270;2023-01-25T10:00:46;7.35;;;4.85;;
55655;SDS011;41530;52.382;5.270;2023-01-25T10:03:38;6.43;;;4.68;;
55655;SDS011;41530;52.382;5.270;2023-01-25T10:06:12;5.25;;;4.30;;
55655;SDS011;41530;52.382;5.270;2023-01-25T10:08:53;6.97;;;4.43;;
55655;SDS011;41530;52.382;5.270;2023-01-25T10:11:30;5.38;;;4.30;;
55655;SDS011;41530;52.382;5.270;2023-01-25T10:13:58;5.50;;;4.40;;
55655;SDS011;41530;52.382;5.270;2023-01-25T10:16:30;6.00;;;4.47;;
55655;SDS011;41530;52.382;5.270;2023-01-25T10:22:28;10.68;;;4.53;;
55655;SDS011;41530;52.382;5.270;2023-01-25T10:29:56;6.03;;;4.50;;
55655;SDS011;41530;52.382;5.270;2023-01-25T10:32:27;6.28;;;4.65;;
55655;SDS011;41530;52.382;5.270;2023-01-25T10:35:14;6.88;;;4.97;;
55655;SDS011;41530;52.382;5.270;2023-01-25T10:38:00;5.60;;;4.22;;
55655;SDS011;41530;52.382;5.270;2023-01-25T10:40:34;6.97;;;4.38;;
55655;SDS011;41530;52.382;5.270;2023-01-25T10:43:14;8.18;;;4.55;;
55655;SDS011;41530;52.382;5.270;2023-01-25T10:45:44;6.78;;;4.90;;
55655;SDS011;41530;52.382;5.270;2023-01-25T10:48:13;6.22;;;4.35;;
55655;SDS011;41530;52.382;5.270;2023-01-25T10:50:46;6.95;;;4.57;;
55655;SDS011;41530;52.382;5.270;2023-01-25T10:53:20;7.97;;;4.40;;
55655;SDS011;41530;52.382;5.270;2023-01-25T10:55:53;5.75;;;4.05;;
55655;SDS011;41530;52.382;5.270;2023-01-25T10:58:28;6.88;;;4.00;;
55655;SDS011;41530;52.382;5.270;2023-01-25T11:00:57;6.07;;;4.30;;
55655;SDS011;41530;52.382;5.270;2023-01-25T11:03:31;5.28;;;3.70;;
55655;SDS011;41530;52.382;5.270;2023-01-25T11:05:59;8.77;;;4.20;;
55655;SDS011;41530;52.382;5.270;2023-01-25T11:10:56;6.47;;;4.25;;
55655;SDS011;41530;52.382;5.270;2023-01-25T11:13:28;5.78;;;4.00;;
55655;SDS011;41530;52.382;5.270;2023-01-25T11:18:27;6.10;;;4.00;;
55655;SDS011;41530;52.382;5.270;2023-01-25T11:21:04;10.75;;;3.72;;
55655;SDS011;41530;52.382;5.270;2023-01-25T11:23:37;6.25;;;3.97;;
55655;SDS011;41530;52.382;5.270;2023-01-25T11:26:14;6.18;;;3.65;;
55655;SDS011;41530;52.382;5.270;2023-01-25T11:28:43;8.05;;;4.03;;
55655;SDS011;41530;52.382;5.270;2023-01-25T11:31:11;4.95;;;3.72;;
55655;SDS011;41530;52.382;5.270;2023-01-25T11:33:45;5.28;;;3.63;;
55655;SDS011;41530;52.382;5.270;2023-01-25T11:42:07;4.82;;;3.60;;
55655;SDS011;41530;52.382;5.270;2023-01-25T11:44:50;7.07;;;3.33;;
55655;SDS011;41530;52.382;5.270;2023-01-25T11:47:46;4.88;;;3.17;;
55655;SDS011;41530;52.382;5.270;2023-01-25T11:51:19;6.35;;;3.28;;
55655;SDS011;41530;52.382;5.270;2023-01-25T12:13:35;7.25;;;3.55;;
55655;SDS011;41530;52.382;5.270;2023-01-25T12:16:14;6.30;;;3.47;;
55655;SDS011;41530;52.382;5.270;2023-01-25T12:18:48;5.30;;;3.30;;
55655;SDS011;41530;52.382;5.270;2023-01-25T12:21:25;4.70;;;3.38;;
55655;SDS011;41530;52.382;5.270;2023-01-25T12:27:14;5.50;;;3.17;;
55655;SDS011;41530;52.382;5.270;2023-01-25T12:29:55;5.85;;;3.72;;
55655;SDS011;41530;52.382;5.270;2023-01-25T12:35:13;6.22;;;3.70;;
55655;SDS011;41530;52.382;5.270;2023-01-25T12:37:54;5.03;;;3.70;;
55655;SDS011;41530;52.382;5.270;2023-01-25T12:40:41;5.10;;;3.28;;
55655;SDS011;41530;52.382;5.270;2023-01-25T12:43:25;6.35;;;3.42;;
55655;SDS011;41530;52.382;5.270;2023-01-25T12:45:56;4.25;;;3.30;;
55655;SDS011;41530;52.382;5.270;2023-01-25T12:48:29;4.30;;;3.50;;
55655;SDS011;41530;52.382;5.270;2023-01-25T12:51:00;4.68;;;3.78;;
55655;SDS011;41530;52.382;5.270;2023-01-25T12:53:43;5.65;;;3.45;;
55655;SDS011;41530;52.382;5.270;2023-01-25T12:56:30;6.05;;;3.88;;
55655;SDS011;41530;52.382;5.270;2023-01-25T13:02:01;6.50;;;4.40;;
55655;SDS011;41530;52.382;5.270;2023-01-25T13:04:51;7.18;;;4.13;;
55655;SDS011;41530;52.382;5.270;2023-01-25T13:07:30;7.25;;;4.20;;
55655;SDS011;41530;52.382;5.270;2023-01-25T13:10:16;5.03;;;3.65;;
55655;SDS011;41530;52.382;5.270;2023-01-25T13:12:52;8.00;;;3.67;;
55655;SDS011;41530;52.382;5.270;2023-01-25T13:15:36;7.40;;;4.40;;
55655;SDS011;41530;52.382;5.270;2023-01-25T13:20:59;6.78;;;4.45;;
55655;SDS011;41530;52.382;5.270;2023-01-25T13:28:50;6.68;;;4.03;;
55655;SDS011;41530;52.382;5.270;2023-01-25T13:37:12;7.40;;;4.22;;
55655;SDS011;41530;52.382;5.270;2023-01-25T13:39:44;7.10;;;4.43;;
55655;SDS011;41530;52.382;5.270;2023-01-25T13:42:28;6.72;;;4.40;;
55655;SDS011;41530;52.382;5.270;2023-01-25T13:47:44;7.53;;;4.72;;
55655;SDS011;41530;52.382;5.270;2023-01-25T13:50:28;7.18;;;4.38;;
55655;SDS011;41530;52.382;5.270;2023-01-25T13:55:44;6.13;;;4.20;;
55655;SDS011;41530;52.382;5.270;2023-01-25T14:00:57;6.43;;;4.85;;
55655;SDS011;41530;52.382;5.270;2023-01-25T14:03:27;10.82;;;5.10;;
55655;SDS011;41530;52.382;5.270;2023-01-25T14:05:56;10.40;;;5.28;;
55655;SDS011;41530;52.382;5.270;2023-01-25T14:08:25;6.70;;;4.80;;
55655;SDS011;41530;52.382;5.270;2023-01-25T14:10:53;8.90;;;4.57;;
55655;SDS011;41530;52.382;5.270;2023-01-25T14:13:21;7.88;;;5.18;;
55655;SDS011;41530;52.382;5.270;2023-01-25T14:16:07;8.05;;;5.20;;
55655;SDS011;41530;52.382;5.270;2023-01-25T14:21:11;8.75;;;5.00;;
55655;SDS011;41530;52.382;5.270;2023-01-25T14:23:42;7.22;;;4.82;;
55655;SDS011;41530;52.382;5.270;2023-01-25T14:26:17;7.57;;;5.25;;
55655;SDS011;41530;52.382;5.270;2023-01-25T14:28:45;9.00;;;5.63;;
55655;SDS011;41530;52.382;5.270;2023-01-25T14:31:27;8.18;;;5.18;;
55655;SDS011;41530;52.382;5.270;2023-01-25T14:34:01;7.30;;;5.05;;
55655;SDS011;41530;52.382;5.270;2023-01-25T14:36:31;9.10;;;5.82;;
55655;SDS011;41530;52.382;5.270;2023-01-25T14:38:59;7.57;;;5.13;;
55655;SDS011;41530;52.382;5.270;2023-01-25T14:41:36;9.93;;;6.10;;
55655;SDS011;41530;52.382;5.270;2023-01-25T14:44:20;8.88;;;5.57;;
55655;SDS011;41530;52.382;5.270;2023-01-25T14:46:48;9.65;;;5.68;;
55655;SDS011;41530;52.382;5.270;2023-01-25T14:49:19;10.48;;;5.75;;
55655;SDS011;41530;52.382;5.270;2023-01-25T14:54:26;8.57;;;5.63;;
55655;SDS011;41530;52.382;5.270;2023-01-25T14:56:58;8.65;;;5.20;;
55655;SDS011;41530;52.382;5.270;2023-01-25T15:01:58;8.05;;;5.28;;
55655;SDS011;41530;52.382;5.270;2023-01-25T15:04:30;9.05;;;5.38;;
55655;SDS011;41530;52.382;5.270;2023-01-25T15:07:00;9.90;;;6.00;;
55655;SDS011;41530;52.382;5.270;2023-01-25T15:09:58;9.52;;;5.00;;
55655;SDS011;41530;52.382;5.270;2023-01-25T15:12:28;9.10;;;5.68;;
55655;SDS011;41530;52.382;5.270;2023-01-25T15:14:56;7.00;;;5.18;;
55655;SDS011;41530;52.382;5.270;2023-01-25T15:17:43;9.18;;;5.88;;
55655;SDS011;41530;52.382;5.270;2023-01-25T15:23:22;9.32;;;5.45;;
55655;SDS011;41530;52.382;5.270;2023-01-25T15:25:52;8.60;;;4.90;;
55655;SDS011;41530;52.382;5.270;2023-01-25T15:28:24;8.80;;;5.25;;
55655;SDS011;41530;52.382;5.270;2023-01-25T15:30:53;9.35;;;6.10;;
55655;SDS011;41530;52.382;5.270;2023-01-25T15:33:23;8.25;;;5.60;;
55655;SDS011;41530;52.382;5.270;2023-01-25T15:35:53;8.38;;;5.50;;
55655;SDS011;41530;52.382;5.270;2023-01-25T15:38:21;8.65;;;5.32;;
55655;SDS011;41530;52.382;5.270;2023-01-25T15:40:48;8.43;;;5.53;;
55655;SDS011;41530;52.382;5.270;2023-01-25T15:43:16;8.13;;;5.38;;
55655;SDS011;41530;52.382;5.270;2023-01-25T15:45:47;10.98;;;6.10;;
55655;SDS011;41530;52.382;5.270;2023-01-25T15:48:17;8.10;;;5.60;;
55655;SDS011;41530;52.382;5.270;2023-01-25T15:50:48;9.07;;;5.60;;
55655;SDS011;41530;52.382;5.270;2023-01-25T15:53:16;12.15;;;6.25;;
55655;SDS011;41530;52.382;5.270;2023-01-25T15:55:43;8.05;;;5.50;;
55655;SDS011;41530;52.382;5.270;2023-01-25T15:58:12;11.23;;;6.13;;
55655;SDS011;41530;52.382;5.270;2023-01-25T16:00:55;8.57;;;6.03;;
55655;SDS011;41530;52.382;5.270;2023-01-25T16:03:22;8.05;;;5.55;;
55655;SDS011;41530;52.382;5.270;2023-01-25T16:05:50;10.35;;;6.15;;
55655;SDS011;41530;52.382;5.270;2023-01-25T16:08:29;9.10;;;6.40;;
55655;SDS011;41530;52.382;5.270;2023-01-25T16:10:56;12.02;;;6.97;;
55655;SDS011;41530;52.382;5.270;2023-01-25T16:13:23;11.00;;;7.15;;
55655;SDS011;41530;52.382;5.270;2023-01-25T16:15:51;10.93;;;7.03;;
55655;SDS011;41530;52.382;5.270;2023-01-25T16:18:18;11.27;;;6.70;;
55655;SDS011;41530;52.382;5.270;2023-01-25T16:20:46;10.95;;;6.45;;
55655;SDS011;41530;52.382;5.270;2023-01-25T16:23:13;11.63;;;7.22;;
55655;SDS011;41530;52.382;5.270;2023-01-25T16:25:40;19.77;;;8.25;;
55655;SDS011;41530;52.382;5.270;2023-01-25T16:28:12;14.20;;;8.93;;
55655;SDS011;41530;52.382;5.270;2023-01-25T16:30:40;12.40;;;7.93;;
55655;SDS011;41530;52.382;5.270;2023-01-25T16:33:07;12.80;;;7.85;;
55655;SDS011;41530;52.382;5.270;2023-01-25T16:35:33;11.75;;;7.63;;
55655;SDS011;41530;52.382;5.270;2023-01-25T16:38:00;14.05;;;7.05;;
55655;SDS011;41530;52.382;5.270;2023-01-25T16:40:28;12.52;;;7.60;;
55655;SDS011;41530;52.382;5.270;2023-01-25T16:42:57;12.98;;;7.80;;
55655;SDS011;41530;52.382;5.270;2023-01-25T16:45:24;12.43;;;7.80;;
55655;SDS011;41530;52.382;5.270;2023-01-25T16:47:51;13.15;;;8.25;;
55655;SDS011;41530;52.382;5.270;2023-01-25T16:50:19;12.95;;;7.40;;
55655;SDS011;41530;52.382;5.270;2023-01-25T16:52:47;13.05;;;8.10;;
55655;SDS011;41530;52.382;5.270;2023-01-25T16:55:16;11.02;;;7.45;;